Flight Track Log - Related Links

Times and Time Zones

All times are in EDT time to prevent confusion due to time zone crossing. See the N328AJ flight status page for this flight to view local times or setup timezone preferences in your user account.

Time Position Orientation Groundspeed Altitude Reporting Facility
EDT Latitude Longitude Course Direction KTS MPH feet Rate Location/Type
Fri 08:11:48 AM 39.9986 -82.9039 23° Northeast 158 182 1,200  Level Indianapolis Center
Fri 08:13:04 AM 40.0514 -82.8747 23° Northeast 182 209 3,300 1,595 Climbing Indianapolis Center
Fri 08:13:07 AM 40.0500 -82.8711 117° Southeast 212 244 3,300 1,672 Level Indianapolis Center
Fri 08:14:05 AM 40.0594 -82.7911 81° East 228 262 5,000 1,818 Climbing Indianapolis Center
Fri 08:14:13 AM 40.0611 -82.7744 83° East 236 272 5,300 1,839 Climbing Indianapolis Center
Fri 08:15:07 AM 40.0653 -82.7067 85° East 239 275 6,900 1,552 Climbing Indianapolis Center
Fri 08:16:09 AM 40.0692 -82.6228 87° East 233 268 8,300 1,258 Climbing Indianapolis Center
Fri 08:17:11 AM 40.0733 -82.5317 87° East 246 283 9,500 1,024 Climbing Indianapolis Center
Fri 08:18:12 AM 40.0803 -82.4347 85° East 264 304 10,400 976 Climbing Indianapolis Center
Fri 08:19:14 AM 40.0931 -82.3150 82° East 276 318 11,500 968 Climbing Indianapolis Center
Fri 08:20:16 AM 40.1119 -82.2183 76° East 273 314 12,400 878 Climbing Indianapolis Center
Fri 08:21:17 AM 40.1733 -82.1594 36° Northeast 273 314 13,300 927 Climbing Indianapolis Center
Fri 08:22:19 AM 40.2225 -82.0836 50° Northeast 278 320 14,300 1,113 Climbing Indianapolis Center
Fri 08:23:21 AM 40.2669 -81.9900 58° Northeast 272 313 15,600 1,161 Climbing Indianapolis Center
Fri 08:24:23 AM 40.2956 -81.8992 68° East 270 311 16,700 1,073 Climbing Indianapolis Center
Fri 08:25:24 AM 40.3086 -81.8039 80° East 275 316 17,800 976 Climbing Indianapolis Center
Fri 08:26:26 AM 40.3067 -81.7081 91° East 262 302 18,700 1,016 Climbing Indianapolis Center
Fri 08:27:28 AM 40.3042 -81.6108 92° East 265 305 19,900 1,113 Climbing Indianapolis Center
Fri 08:28:30 AM 40.3022 -81.5150 91° East 262 302 21,000 537 Climbing Indianapolis Center
Fri 08:29:31 AM 40.2969 -81.4147 94° East 271 312 21,000 195 Level Indianapolis Center
Fri 08:30:33 AM 40.2919 -81.3006 93° East 303 349 21,400 532 Climbing Indianapolis Center
Fri 08:31:35 AM 40.2889 -81.1944 92° East 295 339 22,100 726 Climbing Indianapolis Center
Fri 08:32:37 AM 40.3131 -81.0778 75° East 285 328 22,900 439 Climbing Indianapolis Center
Fri 08:33:38 AM 40.3342 -80.9736 75° East 290 334 23,000 49 Climbing Indianapolis Center
Fri 08:34:40 AM 40.3556 -80.8725 74° East 303 349 23,000  Level Cleveland Center
Fri 08:35:42 AM 40.3789 -80.7611 75° East 314 361 23,000  Level Cleveland Center
Fri 08:36:44 AM 40.4025 -80.6489 75° East 318 366 23,000  Level Cleveland Center
Fri 08:37:46 AM 40.4308 -80.5144 74° East 319 367 23,000  Level Cleveland Center
Fri 08:38:47 AM 40.4542 -80.4006 75° East 320 368 23,000  Level Cleveland Center
Fri 08:39:49 AM 40.4756 -80.2981 75° East 319 367 23,000  Level Cleveland Center
Fri 08:40:51 AM 40.5014 -80.1631 76° East 318 366 23,000  Level Cleveland Center
Fri 08:41:53 AM 40.5236 -80.0514 75° East 318 366 23,000  Level Cleveland Center
Fri 08:42:54 AM 40.5461 -79.9425 75° East 321 369 23,000  Level Cleveland Center
Fri 08:43:56 AM 40.5681 -79.8297 76° East 319 367 23,000  Level Cleveland Center
Fri 08:44:58 AM 40.5908 -79.7161 75° East 321 369 23,000  Level Cleveland Center
Fri 08:46:00 AM 40.6131 -79.6028 75° East 321 369 23,000  Level Cleveland Center
Fri 08:47:01 AM 40.6350 -79.4897 76° East 320 368 23,000  Level Cleveland Center
Fri 08:48:03 AM 40.6611 -79.3547 76° East 319 367 23,000  Level Cleveland Center
Fri 08:49:05 AM 40.6822 -79.2417 76° East 318 366 23,000  Level Cleveland Center
Fri 08:50:07 AM 40.7047 -79.1281 75° East 320 368 23,000  Level Cleveland Center
Fri 08:51:09 AM 40.7264 -79.0147 76° East 320 368 23,000  Level Cleveland Center
Fri 08:52:11 AM 40.7511 -78.8842 76° East 316 364 23,000  Level Cleveland Center
Fri 08:53:12 AM 40.7731 -78.7711 76° East 321 369 23,000  Level Cleveland Center
Fri 08:54:14 AM 40.7942 -78.6578 76° East 322 371 23,000  Level Cleveland Center
Fri 08:55:16 AM 40.8144 -78.5461 76° East 319 367 23,000  Level Cleveland Center
Fri 08:56:18 AM 40.8356 -78.4336 76° East 321 369 23,000  Level Cleveland Center
Fri 08:57:20 AM 40.8608 -78.3092 75° East 322 371 23,000  Level Cleveland Center
Fri 08:58:22 AM 40.8811 -78.1850 78° East 322 371 23,000  Level Cleveland Center
Fri 08:59:24 AM 40.9025 -78.0717 76° East 321 369 23,000  Level Cleveland Center
Fri 09:00:26 AM 40.9300 -77.9633 71° East 316 364 23,000  Level Cleveland Center
Fri 09:01:28 AM 40.9758 -77.8642 59° Northeast 320 368 23,000  Level Cleveland Center
Fri 09:02:12 AM 41.0103 -77.7808 61° Northeast 307 353 23,000  Level New York Center
Fri 09:03:12 AM 41.0556 -77.6808 59° Northeast 307 353 23,000  Level New York Center
Fri 09:04:12 AM 41.1011 -77.5808 59° Northeast 312 359 23,000  Level New York Center
Fri 09:05:12 AM 41.1442 -77.4803 60° Northeast 317 365 23,000  Level New York Center
Fri 09:06:12 AM 41.1894 -77.3828 58° Northeast 317 365 23,000  Level New York Center
Fri 09:07:12 AM 41.2372 -77.2714 60° Northeast 317 365 23,000  Level New York Center
Fri 09:08:12 AM 41.2803 -77.1708 60° Northeast 317 365 23,000  Level New York Center
Fri 09:09:12 AM 41.3250 -77.0700 59° Northeast 317 365 23,000  Level New York Center
Fri 09:10:12 AM 41.3700 -76.9719 59° Northeast 317 365 23,000 -400 Level New York Center
Fri 09:11:12 AM 41.4422 -76.9011 36° Northeast 312 359 22,200 -850 Descending New York Center
Fri 09:12:12 AM 41.5128 -76.8244 39° Northeast 312 359 21,300 -900 Descending New York Center
Fri 09:13:12 AM 41.5878 -76.7450 38° Northeast 327 376 20,400 -900 Descending New York Center
Fri 09:14:12 AM 41.6347 -76.6356 60° Northeast 327 376 19,500 -900 Descending New York Center
Fri 09:15:12 AM 41.6097 -76.5083 105° East 312 359 18,600 -850 Descending New York Center
Fri 09:16:12 AM 41.5717 -76.3886 113° Southeast 312 359 17,800 -700 Descending New York Center
Fri 09:17:12 AM 41.5267 -76.2878 121° Southeast 338 389 17,200 -400 Descending New York Center
Fri 09:18:12 AM 41.4772 -76.1814 122° Southeast 346 398 17,000 -100 Descending New York Center
Fri 09:19:12 AM 41.4219 -76.0664 123° Southeast 341 392 17,000  Level New York Center
Fri 09:20:12 AM 41.3806 -75.9689 119° Southeast 336 387 17,000  Level New York Center
Fri 09:21:12 AM 41.3375 -75.8606 118° Southeast 336 387 17,000  Level New York Center
Fri 09:22:12 AM 41.2958 -75.7581 118° Southeast 326 375 17,000 -1,000 Level New York Center
Fri 09:23:12 AM 41.2469 -75.6358 118° Southeast 339 390 15,000 -1,800 Descending New York Center
Fri 09:24:12 AM 41.2056 -75.5253 116° Southeast 339 390 13,400 -1,350 Descending New York Center
Fri 09:25:12 AM 41.1742 -75.4211 112° Southeast 330 380 12,300 -1,250 Descending New York Center
Fri 09:26:12 AM 41.1408 -75.3142 112° Southeast 325 374 10,900 -1,650 Descending New York Center
Fri 09:27:12 AM 41.1058 -75.1961 111° Southeast 318 366 9,000 -1,750 Descending New York Center
Fri 09:28:12 AM 41.0722 -75.0922 113° Southeast 318 366 7,400 -1,450 Descending New York Center
Fri 09:29:12 AM 41.0383 -74.9908 114° Southeast 308 354 6,100 -750 Descending New York Center
Fri 09:30:12 AM 41.0286 -74.9106 99° East 290 334 5,900 -400 Descending New York Center
Fri 09:31:12 AM 41.0225 -74.7892 94° East 279 321 5,300 -500 Descending New York Center
Fri 09:32:12 AM 41.0192 -74.6956 93° East 279 321 4,900 -500 Descending New York Center
Fri 09:33:12 AM 41.0147 -74.5797 93° East 285 328 4,300 -550 Descending New York Center
Fri 09:34:12 AM 41.0097 -74.4806 94° East 285 328 3,800 -650 Descending New York Center
Fri 09:35:12 AM 41.0028 -74.3647 95° East 290 334 3,000 -803 Descending New York Center
Fri 09:36:19 AM 41.0000 -74.2500 92° East 286 329 2,100 -446 Descending New York TRACON
Fri 09:37:13 AM 41.0000 -74.1667 90° East 234 269 2,100  Level New York TRACON
Fri 09:38:13 AM 41.0000 -74.0833 90° East 229 264 2,100  Level New York TRACON
Fri 09:39:13 AM 40.9833 -74.0000 105° East 227 261 2,100  Level New York TRACON
Fri 09:40:13 AM 40.9667 -73.9500 114° Southeast 216 249 2,100 -250 Level New York TRACON
Fri 09:41:13 AM 40.9167 -73.9833 207° Southwest 163 188 1,600 -526 Descending New York TRACON
Fri 09:42:07 AM 40.9000 -74.0000 217° Southwest 147 169 1,100 -579 Descending New York TRACON
Fri 09:43:07 AM 40.8667 -74.0333 217° Southwest 120 138 500 -600 Descending New York TRACON
Fri 09:45:00 AM 40.8500 -74.0500 101° East  Level FlightAware Approximate
Fri 09:52:00 AM 40.8501 -74.0608 101° East  Level Estimated

Login

Don't have an account? Register now (free) for customized features, flight alerts, and more!